Terminal Aerodrome Forecast
Issued by NWS

Home | Current Version | Previous Version | Graphics & Text | Print | Product List | Glossary On
Versions: 1 2 3 4 5 6 7 8 9 10 11 12 13 14 15 16 17
000
FTUS43 KBIS 231500 AAA
TAFMOT
TAF AMD
KMOT 231548Z 2316/2412 31014KT P6SM BKN005 OVC015
     FM231700 30014KT P6SM BKN008 OVC015
     FM240000 27006KT P6SM OVC020
     FM240900 21005KT P6SM SCT020 SCT070=

USA.gov is the U.S. government's official web portal to all federal, state and local government web resources and services.